createdAt,value
2019-05-30T00:00:30.891Z,52.20
2019-05-30T00:03:00.264Z,52.20
2019-05-30T00:05:28.933Z,52.30
2019-05-30T00:07:58.175Z,52.30
2019-05-30T00:10:26.839Z,52.20
2019-05-30T00:12:56.668Z,52.20
2019-05-30T00:15:25.749Z,52.20
2019-05-30T00:17:54.633Z,52.30
2019-05-30T00:20:23.361Z,52.20
2019-05-30T00:22:51.913Z,52.30
2019-05-30T00:25:20.555Z,52.30
2019-05-30T00:27:49.227Z,52.30
2019-05-30T00:30:24.241Z,52.30
2019-05-30T00:32:48.105Z,52.30
2019-05-30T00:35:16.597Z,52.30
2019-05-30T00:37:45.127Z,52.30
2019-05-30T00:40:14.107Z,52.30
2019-05-30T00:42:42.684Z,52.30
2019-05-30T00:45:20.977Z,52.30
2019-05-30T00:47:41.624Z,52.30
2019-05-30T00:50:10.210Z,52.40
2019-05-30T00:52:38.705Z,52.40
2019-05-30T00:55:07.438Z,52.40
2019-05-30T00:57:35.982Z,53.00
2019-05-30T01:00:07.133Z,52.50
2019-05-30T01:02:35.807Z,52.50
2019-05-30T01:05:07.686Z,52.60
2019-05-30T01:07:36.202Z,52.60
2019-05-30T01:10:07.614Z,52.60
2019-05-30T01:12:36.408Z,52.60
2019-05-30T01:15:07.479Z,52.60
2019-05-30T01:17:36.122Z,52.60
2019-05-30T01:20:05.869Z,52.60
2019-05-30T01:22:34.449Z,52.70
2019-05-30T01:25:04.405Z,52.70
2019-05-30T01:27:33.294Z,52.70
2019-05-30T01:30:01.971Z,52.70
2019-05-30T01:32:30.687Z,52.70
2019-05-30T01:34:59.732Z,52.70
2019-05-30T01:37:28.548Z,52.70
2019-05-30T01:39:57.707Z,52.70
2019-05-30T01:42:26.356Z,52.80
2019-05-30T01:44:55.426Z,52.70
2019-05-30T01:47:24.016Z,52.70
2019-05-30T01:49:52.536Z,52.70
2019-05-30T01:52:21.082Z,52.70
2019-05-30T01:54:49.644Z,52.80
2019-05-30T01:57:18.335Z,52.80
2019-05-30T01:59:46.973Z,52.80
2019-05-30T02:02:15.488Z,52.80
2019-05-30T02:04:43.993Z,52.90
2019-05-30T02:07:12.510Z,52.90
2019-05-30T02:09:41.079Z,52.90
2019-05-30T02:12:09.714Z,53.00
2019-05-30T02:14:38.262Z,53.00
2019-05-30T02:17:07.792Z,53.00
2019-05-30T02:19:36.529Z,53.10
2019-05-30T02:22:05.833Z,53.10
2019-05-30T02:24:34.455Z,53.10
2019-05-30T02:27:04.113Z,53.30
2019-05-30T02:29:32.692Z,53.50
2019-05-30T02:32:02.959Z,53.40
2019-05-30T02:34:31.467Z,53.40
2019-05-30T02:37:01.227Z,53.40
2019-05-30T02:39:30.175Z,53.60
2019-05-30T02:41:58.730Z,53.60
2019-05-30T02:44:27.283Z,54.10
2019-05-30T02:46:57.517Z,54.10
2019-05-30T02:49:26.338Z,54.10
2019-05-30T02:51:55.115Z,54.50
2019-05-30T02:54:23.718Z,54.40
2019-05-30T02:56:52.286Z,54.50
2019-05-30T02:59:20.898Z,54.70
2019-05-30T03:02:01.399Z,54.90
2019-05-30T03:04:19.795Z,55.00
2019-05-30T03:06:48.409Z,54.80
2019-05-30T03:09:17.065Z,54.90
2019-05-30T03:11:45.701Z,54.90
2019-05-30T03:14:19.213Z,54.90
2019-05-30T03:16:44.536Z,55.00
2019-05-30T03:19:13.065Z,55.00
2019-05-30T03:21:41.804Z,55.10
2019-05-30T03:24:13.662Z,55.10
2019-05-30T03:26:40.878Z,54.90
2019-05-30T03:29:10.074Z,54.90
2019-05-30T03:31:39.612Z,54.80
2019-05-30T03:34:14.015Z,54.80
2019-05-30T03:36:38.461Z,54.70
2019-05-30T03:39:07.760Z,54.80
2019-05-30T03:41:37.607Z,54.70
2019-05-30T03:44:08.337Z,54.70
2019-05-30T03:46:42.257Z,54.80
2019-05-30T03:49:15.060Z,54.80
2019-05-30T03:51:43.734Z,54.70
2019-05-30T03:54:14.159Z,54.70
2019-05-30T03:56:51.634Z,54.70
2019-05-30T03:59:26.595Z,54.70
2019-05-30T04:02:08.938Z,54.70
2019-05-30T04:04:42.929Z,54.70
2019-05-30T04:07:15.771Z,54.80
2019-05-30T04:09:45.047Z,54.90
2019-05-30T04:12:28.630Z,55.00
2019-05-30T04:15:07.834Z,55.00
2019-05-30T04:17:36.447Z,55.10
2019-05-30T04:20:09.333Z,55.20
2019-05-30T04:22:38.343Z,55.20
2019-05-30T04:25:08.573Z,55.20
2019-05-30T04:27:37.212Z,55.30
2019-05-30T04:30:07.878Z,55.30
2019-05-30T04:32:36.429Z,55.40
2019-05-30T04:35:05.761Z,55.40
2019-05-30T04:37:34.490Z,55.50
2019-05-30T04:40:04.395Z,55.70
2019-05-30T04:42:32.909Z,55.60
2019-05-30T04:45:01.482Z,55.70
2019-05-30T04:47:29.973Z,55.70
2019-05-30T04:49:58.560Z,55.60
2019-05-30T04:52:27.110Z,55.60
2019-05-30T04:54:55.612Z,55.60
2019-05-30T04:57:27.044Z,55.70
2019-05-30T04:59:54.352Z,55.80
2019-05-30T05:02:24.488Z,55.90
2019-05-30T05:04:53.086Z,55.90
2019-05-30T05:07:22.132Z,55.90
2019-05-30T05:09:50.817Z,56.00
2019-05-30T05:12:20.365Z,56.00
2019-05-30T05:14:48.988Z,56.00
2019-05-30T05:17:18.853Z,56.00
2019-05-30T05:19:47.478Z,56.20
2019-05-30T05:22:17.027Z,56.40
2019-05-30T05:24:45.622Z,56.30
2019-05-30T05:27:15.509Z,56.40
2019-05-30T05:29:44.128Z,56.40
2019-05-30T05:32:12.660Z,56.50
2019-05-30T05:34:41.203Z,56.50
2019-05-30T05:37:09.711Z,56.60
2019-05-30T05:39:38.222Z,56.50
2019-05-30T05:42:06.825Z,56.60
2019-05-30T05:44:35.344Z,56.70
2019-05-30T05:47:03.844Z,56.90
2019-05-30T05:49:32.320Z,56.90
2019-05-30T05:52:00.854Z,57.00
2019-05-30T05:54:29.405Z,57.10
2019-05-30T05:56:57.973Z,57.10
2019-05-30T05:59:26.577Z,56.90
2019-05-30T06:01:55.090Z,57.00
2019-05-30T06:04:23.674Z,57.00
2019-05-30T06:06:52.168Z,57.10
2019-05-30T06:09:20.706Z,57.00
2019-05-30T06:11:49.285Z,57.20
2019-05-30T06:14:17.881Z,57.20
2019-05-30T06:16:46.420Z,57.30
2019-05-30T06:19:15.010Z,57.30
2019-05-30T06:21:53.656Z,57.30
2019-05-30T06:24:13.865Z,57.20
2019-05-30T06:26:42.465Z,57.30
2019-05-30T06:29:11.095Z,57.40
2019-05-30T06:31:39.670Z,57.40
2019-05-30T06:34:08.284Z,57.40
2019-05-30T06:36:36.868Z,57.40
2019-05-30T06:39:07.813Z,57.60
2019-05-30T06:41:36.632Z,57.50
2019-05-30T06:44:05.936Z,57.50
2019-05-30T06:46:34.531Z,57.60
2019-05-30T06:49:03.195Z,57.60
2019-05-30T06:51:31.811Z,57.50
2019-05-30T06:54:00.321Z,57.30
2019-05-30T06:56:29.498Z,57.30
2019-05-30T06:58:58.125Z,57.20
2019-05-30T07:01:27.884Z,57.30
2019-05-30T07:03:56.626Z,57.20
2019-05-30T07:06:26.817Z,57.20
2019-05-30T07:08:55.532Z,57.20
2019-05-30T07:11:24.722Z,57.30
2019-05-30T07:13:53.311Z,57.30
2019-05-30T07:16:23.294Z,57.30
2019-05-30T07:18:51.917Z,57.30
2019-05-30T07:21:20.415Z,57.30
2019-05-30T07:23:49.025Z,57.20
2019-05-30T07:26:17.646Z,57.30
2019-05-30T07:28:46.202Z,57.40
2019-05-30T07:31:14.688Z,57.40
2019-05-30T07:33:43.332Z,57.60
2019-05-30T07:36:11.894Z,57.60
2019-05-30T07:38:40.508Z,57.60
2019-05-30T07:41:09.057Z,57.50
2019-05-30T07:43:37.596Z,57.50
2019-05-30T07:46:06.180Z,57.60
2019-05-30T07:48:34.792Z,57.60
2019-05-30T07:51:03.293Z,57.70
2019-05-30T07:53:32.824Z,57.70
2019-05-30T07:56:01.364Z,57.70
2019-05-30T07:58:30.930Z,57.90
2019-05-30T08:00:59.680Z,57.90
2019-05-30T08:03:28.406Z,58.00
2019-05-30T08:05:56.981Z,58.00
2019-05-30T08:08:25.490Z,57.90
2019-05-30T08:11:08.465Z,57.90
2019-05-30T08:13:24.462Z,58.00
2019-05-30T08:15:53.128Z,57.90
2019-05-30T08:18:21.744Z,58.10
2019-05-30T08:20:50.338Z,58.10
2019-05-30T08:23:18.916Z,58.00
2019-05-30T08:25:47.518Z,58.40
2019-05-30T08:28:16.121Z,58.40
2019-05-30T08:30:44.690Z,58.30
2019-05-30T08:33:13.403Z,58.60
2019-05-30T08:35:49.621Z,58.60
2019-05-30T08:38:12.423Z,58.60
2019-05-30T08:40:41.212Z,58.60
2019-05-30T08:43:09.792Z,58.60
2019-05-30T08:45:38.427Z,58.40
2019-05-30T08:48:06.995Z,58.40
2019-05-30T08:50:36.815Z,58.50
2019-05-30T08:53:05.855Z,58.50
2019-05-30T08:55:34.434Z,58.80
2019-05-30T08:58:02.959Z,59.10
2019-05-30T09:00:31.549Z,59.10
2019-05-30T09:03:00.186Z,59.30
2019-05-30T09:05:28.752Z,59.30
2019-05-30T09:07:57.258Z,59.70
2019-05-30T09:10:25.863Z,59.60
2019-05-30T09:12:54.436Z,59.60
2019-05-30T09:15:23.040Z,59.50
2019-05-30T09:17:51.681Z,59.60
2019-05-30T09:20:20.287Z,59.50
2019-05-30T09:22:48.901Z,59.50
2019-05-30T09:25:17.507Z,59.60
2019-05-30T09:27:46.626Z,59.80
2019-05-30T09:30:15.844Z,60.00
2019-05-30T09:32:45.133Z,60.30
2019-05-30T09:35:13.817Z,60.40
2019-05-30T09:37:44.046Z,60.40
2019-05-30T09:40:13.216Z,60.30
2019-05-30T09:42:44.143Z,60.00
2019-05-30T09:45:12.157Z,59.60
2019-05-30T09:47:43.026Z,59.50
2019-05-30T09:50:10.955Z,59.50
2019-05-30T09:52:41.587Z,59.50
2019-05-30T09:55:09.829Z,59.30
2019-05-30T09:57:38.309Z,59.20
2019-05-30T10:00:11.964Z,59.10
2019-05-30T10:02:42.880Z,59.00
2019-05-30T10:05:10.717Z,59.30
2019-05-30T10:07:39.327Z,59.40
2019-05-30T10:10:08.003Z,59.60
2019-05-30T10:12:36.533Z,59.70
2019-05-30T10:15:08.100Z,59.90
2019-05-30T10:17:36.711Z,60.00
2019-05-30T10:20:07.992Z,60.10
2019-05-30T10:22:36.582Z,60.10
2019-05-30T10:25:06.806Z,60.00
2019-05-30T10:27:35.390Z,59.90
2019-05-30T10:30:08.622Z,60.10
2019-05-30T10:32:37.105Z,60.20
2019-05-30T10:35:05.761Z,60.40
2019-05-30T10:37:34.298Z,60.50
2019-05-30T10:40:04.304Z,60.50
2019-05-30T10:42:33.005Z,60.80
2019-05-30T10:45:01.597Z,61.00
2019-05-30T10:47:30.136Z,61.10
2019-05-30T10:49:58.673Z,61.00
2019-05-30T10:52:29.905Z,60.80
2019-05-30T10:55:05.389Z,61.00
2019-05-30T10:57:35.671Z,61.50
2019-05-30T11:00:18.594Z,61.50
2019-05-30T11:02:47.893Z,61.70
2019-05-30T11:05:21.201Z,61.50
2019-05-30T11:08:06.223Z,61.70
2019-05-30T11:10:41.945Z,61.40
2019-05-30T11:13:16.939Z,60.80
2019-05-30T11:15:55.827Z,60.30
2019-05-30T11:18:27.568Z,60.10
2019-05-30T11:20:56.390Z,60.00
2019-05-30T11:23:32.071Z,60.10
2019-05-30T11:26:04.690Z,60.00
2019-05-30T11:28:33.269Z,60.00
2019-05-30T11:31:04.555Z,59.90
2019-05-30T11:33:32.153Z,60.40
2019-05-30T11:36:00.769Z,59.80
2019-05-30T11:38:29.349Z,60.20
2019-05-30T11:41:03.930Z,60.40
2019-05-30T11:43:28.240Z,60.70
2019-05-30T11:46:27.768Z,60.70
2019-05-30T11:48:28.127Z,60.60
2019-05-30T11:50:57.916Z,60.30
2019-05-30T11:53:26.665Z,60.20
2019-05-30T11:55:56.220Z,60.10
2019-05-30T11:58:25.122Z,60.10
2019-05-30T12:00:54.703Z,60.00
2019-05-30T12:03:23.424Z,59.90
2019-05-30T12:05:52.537Z,59.80
2019-05-30T12:08:21.101Z,59.90
2019-05-30T12:10:50.924Z,60.10
2019-05-30T12:13:22.498Z,60.10
2019-05-30T12:15:51.379Z,60.10
2019-05-30T12:18:20.194Z,59.90
2019-05-30T12:20:51.727Z,59.70
2019-05-30T12:23:20.275Z,59.30
2019-05-30T12:25:48.862Z,58.90
2019-05-30T12:28:20.525Z,58.60
2019-05-30T12:30:59.454Z,58.50
2019-05-30T12:33:26.025Z,58.60
2019-05-30T12:35:54.566Z,58.60
2019-05-30T12:38:26.080Z,58.50
2019-05-30T12:40:57.333Z,58.50
2019-05-30T12:43:25.892Z,58.40
2019-05-30T12:45:54.908Z,58.30
2019-05-30T12:48:29.722Z,58.40
2019-05-30T12:50:59.363Z,58.40
2019-05-30T12:53:29.111Z,58.40
2019-05-30T12:56:00.652Z,58.50
2019-05-30T12:58:29.221Z,58.70
2019-05-30T13:00:58.727Z,58.50
2019-05-30T13:03:27.421Z,58.50
2019-05-30T13:05:57.047Z,58.40
2019-05-30T13:08:25.696Z,58.40
2019-05-30T13:10:55.493Z,58.30
2019-05-30T13:13:24.201Z,58.10
2019-05-30T13:15:52.711Z,58.20
2019-05-30T13:18:21.235Z,58.40
2019-05-30T13:20:49.777Z,58.50
2019-05-30T13:23:18.300Z,58.50
2019-05-30T13:25:46.856Z,58.40
2019-05-30T13:28:15.394Z,58.10
2019-05-30T13:30:43.893Z,57.80
2019-05-30T13:33:12.472Z,57.70
2019-05-30T13:35:41.082Z,57.40
2019-05-30T13:38:09.615Z,57.10
2019-05-30T13:40:38.130Z,57.00
2019-05-30T13:43:07.948Z,56.60
2019-05-30T13:45:36.593Z,56.30
2019-05-30T13:48:06.536Z,56.30
2019-05-30T13:50:35.181Z,56.30
2019-05-30T13:53:05.234Z,56.20
2019-05-30T13:55:33.943Z,56.10
2019-05-30T13:58:03.601Z,55.90
2019-05-30T14:00:32.217Z,55.50
2019-05-30T14:03:02.162Z,55.70
2019-05-30T14:05:30.807Z,56.20
2019-05-30T14:08:06.486Z,56.90
2019-05-30T14:10:37.495Z,56.20
2019-05-30T14:13:06.724Z,56.00
2019-05-30T14:15:35.389Z,55.70
2019-05-30T14:18:07.324Z,55.80
2019-05-30T14:20:36.017Z,54.90
2019-05-30T14:23:05.448Z,54.70
2019-05-30T14:25:34.189Z,54.50
2019-05-30T14:28:04.157Z,54.50
2019-05-30T14:30:32.874Z,54.10
2019-05-30T14:33:02.102Z,53.90
2019-05-30T14:35:30.755Z,54.10
2019-05-30T14:37:59.333Z,54.10
2019-05-30T14:40:27.920Z,54.00
2019-05-30T14:42:56.486Z,53.10
2019-05-30T14:45:27.730Z,53.60
2019-05-30T14:47:55.258Z,53.40
2019-05-30T14:50:23.799Z,53.60
2019-05-30T14:52:52.507Z,53.60
2019-05-30T14:55:21.127Z,53.40
2019-05-30T14:57:49.806Z,53.50
2019-05-30T15:00:18.534Z,53.70
2019-05-30T15:02:47.203Z,53.50
2019-05-30T15:05:16.292Z,53.30
2019-05-30T15:07:44.858Z,53.30
2019-05-30T15:10:13.515Z,53.20
2019-05-30T15:12:42.132Z,52.00
2019-05-30T15:15:14.774Z,50.30
2019-05-30T15:17:42.529Z,51.10
2019-05-30T15:20:12.178Z,52.20
2019-05-30T15:22:41.116Z,50.10
2019-05-30T15:25:12.102Z,47.30
2019-05-30T15:27:40.779Z,47.70
2019-05-30T15:30:10.541Z,47.80
2019-05-30T15:32:42.271Z,49.10
2019-05-30T15:35:11.091Z,50.00
2019-05-30T15:37:40.856Z,51.00
2019-05-30T15:40:10.970Z,52.10
2019-05-30T15:42:39.630Z,52.90
2019-05-30T15:45:09.980Z,53.10
2019-05-30T15:47:38.793Z,53.00
2019-05-30T15:50:08.801Z,53.20
2019-05-30T15:52:37.343Z,54.10
2019-05-30T15:55:07.327Z,53.60
2019-05-30T15:57:36.291Z,53.80
2019-05-30T16:00:10.099Z,53.90
2019-05-30T16:02:38.841Z,53.90
2019-05-30T16:05:10.331Z,53.70
2019-05-30T16:07:39.084Z,53.70
2019-05-30T16:10:07.698Z,53.70
2019-05-30T16:12:36.285Z,53.70
2019-05-30T16:15:06.855Z,53.60
2019-05-30T16:17:35.410Z,53.70
2019-05-30T16:20:05.199Z,53.60
2019-05-30T16:22:33.762Z,52.70
2019-05-30T16:25:02.381Z,49.40
2019-05-30T16:27:31.326Z,49.80
2019-05-30T16:29:59.829Z,50.90
2019-05-30T16:32:28.319Z,51.80
2019-05-30T16:34:56.850Z,52.50
2019-05-30T16:37:26.324Z,53.00
2019-05-30T16:40:05.171Z,53.30
2019-05-30T16:42:25.138Z,53.50
2019-05-30T16:44:53.626Z,53.60
2019-05-30T16:47:22.525Z,53.70
2019-05-30T16:49:51.087Z,53.80
2019-05-30T16:52:19.575Z,53.90
2019-05-30T16:54:48.160Z,54.00
2019-05-30T16:57:16.754Z,54.10
2019-05-30T16:59:45.316Z,54.10
2019-05-30T17:02:14.774Z,54.10
2019-05-30T17:04:43.445Z,53.90
2019-05-30T17:07:12.128Z,53.70
2019-05-30T17:09:40.768Z,53.40
2019-05-30T17:12:09.328Z,53.20
2019-05-30T17:14:37.853Z,53.20
2019-05-30T17:17:06.344Z,53.50
2019-05-30T17:19:34.942Z,53.60
2019-05-30T17:22:03.494Z,53.50
2019-05-30T17:24:32.100Z,53.50
2019-05-30T17:27:00.683Z,53.30
2019-05-30T17:29:29.384Z,53.20
2019-05-30T17:31:57.855Z,53.30
2019-05-30T17:34:26.340Z,53.60
2019-05-30T17:36:54.867Z,53.90
2019-05-30T17:39:24.821Z,54.10
2019-05-30T17:41:56.472Z,54.20
2019-05-30T17:44:25.201Z,54.30
2019-05-30T17:46:53.816Z,54.40
2019-05-30T17:49:23.605Z,54.50
2019-05-30T17:51:52.252Z,54.50
2019-05-30T17:54:21.744Z,54.40
2019-05-30T17:56:50.352Z,55.10
2019-05-30T17:59:20.064Z,54.50
2019-05-30T18:01:48.794Z,54.60
2019-05-30T18:04:17.368Z,54.70
2019-05-30T18:06:45.951Z,54.50
2019-05-30T18:09:14.454Z,54.40
2019-05-30T18:11:42.998Z,54.30
2019-05-30T18:14:11.518Z,54.30
2019-05-30T18:16:40.056Z,54.40
2019-05-30T18:19:08.803Z,54.50
2019-05-30T18:21:37.427Z,54.50
2019-05-30T18:24:05.972Z,54.60
2019-05-30T18:26:34.538Z,54.70
2019-05-30T18:29:03.101Z,54.70
2019-05-30T18:31:32.278Z,54.80
2019-05-30T18:34:00.987Z,54.90
2019-05-30T18:36:32.693Z,54.90
2019-05-30T18:39:01.465Z,54.90
2019-05-30T18:41:30.907Z,55.00
2019-05-30T18:43:59.440Z,55.00
2019-05-30T18:46:28.925Z,55.10
2019-05-30T18:48:57.739Z,55.20
2019-05-30T18:51:26.314Z,55.20
2019-05-30T18:53:54.911Z,55.20
2019-05-30T18:56:24.524Z,55.20
2019-05-30T18:58:53.190Z,55.20
2019-05-30T19:01:21.825Z,55.30
2019-05-30T19:03:50.425Z,55.30
2019-05-30T19:06:18.994Z,55.30
2019-05-30T19:08:47.674Z,55.30
2019-05-30T19:11:27.234Z,55.30
2019-05-30T19:13:46.409Z,55.30
2019-05-30T19:16:14.954Z,55.40
2019-05-30T19:18:43.450Z,55.40
2019-05-30T19:21:12.034Z,55.40
2019-05-30T19:23:40.639Z,55.40
2019-05-30T19:26:09.195Z,55.40
2019-05-30T19:28:37.704Z,55.50
2019-05-30T19:31:06.342Z,55.50
2019-05-30T19:33:35.010Z,55.50
2019-05-30T19:36:03.588Z,55.50
2019-05-30T19:38:33.271Z,55.50
2019-05-30T19:41:01.940Z,56.10
2019-05-30T19:43:31.646Z,55.50
2019-05-30T19:46:00.219Z,56.20
2019-05-30T19:48:28.712Z,55.80
2019-05-30T19:50:57.233Z,55.60
2019-05-30T19:53:25.963Z,55.60
2019-05-30T19:55:54.586Z,55.70
2019-05-30T19:58:23.113Z,55.70
2019-05-30T20:00:58.537Z,55.70
2019-05-30T20:05:52.411Z,55.70
2019-05-30T20:06:13.543Z,55.70
2019-05-30T20:08:20.967Z,55.70
2019-05-30T20:10:49.565Z,55.80
2019-05-30T20:13:18.127Z,55.70
2019-05-30T20:15:46.654Z,55.70
2019-05-30T20:18:15.202Z,55.70
2019-05-30T20:20:53.868Z,55.80
2019-05-30T20:23:14.010Z,55.80
2019-05-30T20:25:45.856Z,55.90
2019-05-30T20:28:12.884Z,55.80
2019-05-30T20:30:41.559Z,55.80
2019-05-30T20:33:10.167Z,55.80
2019-05-30T20:35:40.052Z,55.80
2019-05-30T20:38:09.200Z,55.80
2019-05-30T20:40:38.613Z,55.90
2019-05-30T20:43:07.525Z,55.90
2019-05-30T20:45:39.542Z,55.90
2019-05-30T20:48:06.333Z,55.90
2019-05-30T20:50:35.052Z,55.90
2019-05-30T20:53:03.603Z,56.00
2019-05-30T20:55:32.277Z,56.00
2019-05-30T20:58:00.876Z,56.00
2019-05-30T21:00:37.771Z,56.00
2019-05-30T21:03:06.624Z,56.00
2019-05-30T21:05:35.653Z,56.00
2019-05-30T21:08:05.931Z,56.00
2019-05-30T21:10:34.894Z,56.00
2019-05-30T21:13:04.033Z,56.00
2019-05-30T21:15:32.560Z,56.70
2019-05-30T21:18:01.037Z,56.10
2019-05-30T21:20:29.575Z,56.10
2019-05-30T21:22:58.053Z,56.20
2019-05-30T21:25:26.561Z,56.10
2019-05-30T21:27:55.079Z,56.10
2019-05-30T21:30:23.714Z,56.10
2019-05-30T21:32:52.394Z,56.10
2019-05-30T21:35:21.228Z,56.10
2019-05-30T21:37:49.878Z,56.10
2019-05-30T21:40:18.440Z,56.10
2019-05-30T21:43:04.227Z,56.10
2019-05-30T21:45:17.466Z,56.10
2019-05-30T21:47:46.860Z,56.10
2019-05-30T21:50:15.432Z,56.10
2019-05-30T21:52:43.913Z,56.20
2019-05-30T21:55:12.406Z,56.20
2019-05-30T21:57:41.895Z,56.20
2019-05-30T22:00:18.991Z,56.20
2019-05-30T22:02:54.211Z,56.20
2019-05-30T22:05:23.314Z,56.20
2019-05-30T22:07:51.838Z,56.20
2019-05-30T22:10:20.442Z,56.30
2019-05-30T22:12:49.674Z,56.30
2019-05-30T22:15:18.320Z,56.30
2019-05-30T22:17:47.901Z,56.30
2019-05-30T22:20:16.476Z,56.40
2019-05-30T22:22:46.024Z,56.40
2019-05-30T22:25:14.725Z,56.30
2019-05-30T22:27:44.329Z,56.30
2019-05-30T22:30:13.111Z,56.40
2019-05-30T22:32:42.571Z,56.40
2019-05-30T22:35:11.301Z,56.40
2019-05-30T22:37:39.770Z,56.40
2019-05-30T22:40:08.250Z,56.40
2019-05-30T22:42:36.801Z,56.40
2019-05-30T22:45:08.306Z,56.40
2019-05-30T22:47:36.871Z,56.50
2019-05-30T22:50:06.275Z,56.50
2019-05-30T22:52:34.779Z,56.50
2019-05-30T22:55:03.313Z,56.50
2019-05-30T22:57:31.790Z,56.50
2019-05-30T23:00:00.340Z,56.50
2019-05-30T23:02:29.118Z,56.50
2019-05-30T23:04:57.608Z,56.60
2019-05-30T23:07:26.207Z,56.60
2019-05-30T23:09:55.923Z,56.70
2019-05-30T23:12:24.538Z,56.70
2019-05-30T23:14:54.213Z,56.70
2019-05-30T23:17:22.964Z,56.70
2019-05-30T23:19:52.044Z,56.70
2019-05-30T23:22:21.938Z,56.70
2019-05-30T23:24:52.249Z,56.70
2019-05-30T23:27:20.673Z,57.20
2019-05-30T23:29:49.724Z,56.70
2019-05-30T23:32:18.294Z,56.70
2019-05-30T23:34:48.125Z,56.70
2019-05-30T23:37:16.757Z,56.70
2019-05-30T23:39:45.303Z,56.80
2019-05-30T23:42:13.891Z,56.80
2019-05-30T23:44:42.453Z,56.80
2019-05-30T23:47:11.067Z,56.80
2019-05-30T23:49:39.673Z,56.80
2019-05-30T23:52:08.200Z,56.90
2019-05-30T23:54:36.714Z,56.90
2019-05-30T23:57:05.192Z,56.90
2019-05-30T23:59:33.696Z,56.90
